»·PEaware :: AWE180 KELP-KABQ

AWE180 :: KELP-KABQ

FLIGHT INFORMATION

Flight Status: Arrived
Operator:
US Airways
More flights by this operator :: More flights under this callsign
Pilot: Etienne B. (28927)
Aircraft: AIRBUS A320
(A320)
More flights by this aircraft type
Origin: KELP El Paso Intl
United States
Destination: KABQ Albuquerque Intl Sunport
United States
More flights between these airports :: More routes between these airports
Route: RUTER TCS J13 ABQ
File this flight plan on PilotEdge
Remarks: RMK / SIMBRIEF
Altitude:
(Current/Filed)
32,000ft
Speed:
(Current/Filed)
464kts
Departed: 28-Apr-20 05:06 PM
Arrived: 28-Apr-20 05:48 PM
Distance/Time
Traveled:
195nm/0:42
Distance/Time
To Go:
Arrived

Flight Plot

Page will automatically refresh every two minutes.

Flight plan parsing failed; only flown route is shown


Map Options




Map Legend


Flown Route
Filed Route
Departure Airport
Arrival Airport
Navaid (VOR, NDB)
Fix

Horizontal Profiles

Position Reports

Time Latitude Longitude Heading Altitude Ground
Speed
28-Apr-20 16:43 31.800599 -106.394212 173 3925ft 0kts
28-Apr-20 16:44 31.800599 -106.394212 173 3925ft 0kts
28-Apr-20 16:45 31.800599 -106.394212 173 3925ft 0kts
28-Apr-20 16:46 31.800599 -106.394212 173 3925ft 0kts
28-Apr-20 16:47 31.800599 -106.394212 173 3925ft 0kts
28-Apr-20 16:48 31.800599 -106.394212 173 3925ft 0kts
28-Apr-20 16:49 31.800599 -106.394212 173 3925ft 0kts
28-Apr-20 16:50 31.800599 -106.394212 173 3925ft 0kts
28-Apr-20 16:51 31.800599 -106.394212 173 3925ft 0kts
28-Apr-20 16:52 31.800599 -106.394212 173 3925ft 0kts
28-Apr-20 16:53 31.800599 -106.394212 173 3925ft 0kts
28-Apr-20 16:54 31.801013 -106.394267 173 3925ft 2kts
28-Apr-20 16:55 31.801434 -106.394680 107 3924ft 2kts
28-Apr-20 16:56 31.801461 -106.394868 93 3923ft 0kts
28-Apr-20 16:58 31.801461 -106.394868 93 3923ft 0kts
28-Apr-20 16:59 31.801384 -106.393490 93 3926ft 10kts
28-Apr-20 17:00 31.799915 -106.387950 88 3931ft 24kts
28-Apr-20 17:01 31.799917 -106.378655 92 3943ft 29kts
28-Apr-20 17:02 31.799494 -106.370473 94 3955ft 20kts
28-Apr-20 17:03 31.799259 -106.365146 93 3959ft 13kts
28-Apr-20 17:04 31.799434 -106.359924 357 3949ft 8kts
28-Apr-20 17:05 31.800140 -106.359952 354 3949ft 9kts
28-Apr-20 17:06 31.801658 -106.380719 274 3940ft 166kts
28-Apr-20 17:07 31.777446 -106.421960 178 6149ft 198kts
28-Apr-20 17:08 31.734707 -106.373514 102 7842ft 244kts
28-Apr-20 17:09 31.780754 -106.331443 330 10284ft 276kts
28-Apr-20 17:10 31.840990 -106.397037 316 11926ft 325kts
28-Apr-20 17:11 31.911675 -106.476502 316 12895ft 374kts
28-Apr-20 17:12 31.987612 -106.562274 316 14862ft 382kts
28-Apr-20 17:13 32.065219 -106.650129 316 16698ft 391kts
28-Apr-20 17:14 32.144442 -106.740013 316 18311ft 400kts
28-Apr-20 17:15 32.225534 -106.832251 316 19717ft 409kts
28-Apr-20 17:15 32.298884 -106.903352 336 20796ft 416kts
28-Apr-20 17:17 32.428158 -106.953306 341 22257ft 425kts
28-Apr-20 17:18 32.541390 -106.996315 341 23413ft 432kts
28-Apr-20 17:18 32.637167 -107.032750 341 24328ft 437kts
28-Apr-20 17:19 32.753469 -107.077130 341 25353ft 444kts
28-Apr-20 17:20 32.871555 -107.122314 342 26302ft 449kts
28-Apr-20 17:21 32.990773 -107.168057 342 27215ft 453kts
28-Apr-20 17:22 33.108597 -107.213416 341 28842ft 438kts
28-Apr-20 17:23 33.223314 -107.257674 342 30087ft 433kts
28-Apr-20 17:24 33.341521 -107.265287 10 31180ft 434kts
28-Apr-20 17:25 33.455397 -107.235808 10 32065ft 430kts
28-Apr-20 17:26 33.571547 -107.205703 10 29974ft 435kts
28-Apr-20 17:27 33.691222 -107.174556 9 26620ft 449kts
28-Apr-20 17:28 33.813033 -107.142777 9 23900ft 443kts
28-Apr-20 17:29 33.931394 -107.111795 9 21473ft 430kts
28-Apr-20 17:30 34.046375 -107.081633 9 19021ft 418kts
28-Apr-20 17:31 34.158326 -107.052155 10 16578ft 407kts
28-Apr-20 17:32 34.262511 -107.002854 19 14192ft 399kts
28-Apr-20 17:33 34.360917 -106.952989 19 12271ft 352kts
28-Apr-20 17:34 34.441200 -106.911418 19 11295ft 295kts
28-Apr-20 17:35 34.515758 -106.873050 19 9876ft 288kts
28-Apr-20 17:36 34.589055 -106.835012 19 9020ft 284kts
28-Apr-20 17:37 34.655646 -106.798934 19 9022ft 254kts
28-Apr-20 17:38 34.719975 -106.763805 19 9022ft 252kts
28-Apr-20 17:39 34.783882 -106.728302 25 8640ft 252kts
28-Apr-20 17:40 34.838065 -106.674795 34 7573ft 249kts
28-Apr-20 17:41 34.892145 -106.621793 32 7026ft 250kts
28-Apr-20 17:42 34.943573 -106.571902 32 7044ft 208kts
28-Apr-20 17:43 34.983104 -106.533709 31 7018ft 173kts
28-Apr-20 17:44 35.023498 -106.507201 351 6900ft 156kts
28-Apr-20 17:45 35.043539 -106.545977 275 5929ft 149kts
28-Apr-20 17:46 35.044217 -106.594379 269 5327ft 80kts
28-Apr-20 17:47 35.044880 -106.602219 298 5324ft 2kts
28-Apr-20 17:48 35.045811 -106.606265 266 5323ft 21kts
28-Apr-20 17:49 35.046059 -106.613067 324 5320ft 11kts

Navigation Log

Ident Type
Flight plan parsing failed, navigation log unavailable